createdAt,value
2022-10-05T00:00:37.471Z,12.00
2022-10-05T00:03:13.144Z,15.30
2022-10-05T00:05:45.414Z,14.10
2022-10-05T00:08:20.182Z,10.80
2022-10-05T00:10:52.942Z,13.40
2022-10-05T00:13:25.151Z,16.10
2022-10-05T00:16:01.380Z,18.70
2022-10-05T00:18:34.212Z,14.40
2022-10-05T00:28:22.217Z,10.80
2022-10-05T00:30:52.814Z,14.60
2022-10-05T00:33:24.104Z,9.40
2022-10-05T00:35:54.982Z,14.60
2022-10-05T00:38:25.560Z,12.90
2022-10-05T00:41:04.426Z,11.70
2022-10-05T00:43:50.015Z,14.40
2022-10-05T00:46:23.856Z,10.30
2022-10-05T00:49:00.104Z,11.80
2022-10-05T00:51:31.361Z,11.50
2022-10-05T00:54:18.143Z,14.60
2022-10-05T00:57:10.641Z,11.60
2022-10-05T00:59:50.730Z,13.70
2022-10-05T01:02:30.011Z,11.70
2022-10-05T01:05:06.842Z,12.80
2022-10-05T01:07:42.386Z,12.80
2022-10-05T01:10:19.217Z,13.10
2022-10-05T01:12:58.476Z,10.10
2022-10-05T01:15:34.246Z,12.80
2022-10-05T01:18:08.581Z,12.10
2022-10-05T01:20:44.829Z,12.70
2022-10-05T01:23:33.293Z,11.60
2022-10-05T01:26:13.903Z,10.40
2022-10-05T01:28:50.482Z,16.20
2022-10-05T01:31:25.100Z,16.20
2022-10-05T01:34:05.768Z,12.30
2022-10-05T01:36:47.244Z,15.20
2022-10-05T01:39:24.035Z,16.10
2022-10-05T01:42:00.153Z,15.70
2022-10-05T01:44:34.573Z,17.60
2022-10-05T01:47:10.229Z,16.20
2022-10-05T01:49:45.972Z,13.40
2022-10-05T01:52:27.221Z,16.60
2022-10-05T01:55:09.582Z,16.40
2022-10-05T01:57:48.872Z,12.70
2022-10-05T02:00:20.639Z,15.70
2022-10-05T02:02:53.847Z,15.40
2022-10-05T02:05:27.179Z,15.90
2022-10-05T02:08:01.188Z,13.00
2022-10-05T02:10:34.191Z,12.20
2022-10-05T02:15:39.667Z,17.90
2022-10-05T02:18:13.698Z,12.60
2022-10-05T02:20:44.990Z,11.80
2022-10-05T02:23:19.094Z,16.20
2022-10-05T02:25:50.915Z,14.90
2022-10-05T02:28:24.638Z,15.70
2022-10-05T02:30:59.000Z,12.80
2022-10-05T02:33:31.919Z,13.70
2022-10-05T02:36:14.641Z,13.60
2022-10-05T02:38:56.933Z,13.90
2022-10-05T02:41:35.583Z,16.40
2022-10-05T02:44:12.044Z,16.10
2022-10-05T02:46:47.296Z,17.70
2022-10-05T02:49:23.924Z,16.50
2022-10-05T02:52:01.287Z,16.00
2022-10-05T02:54:40.084Z,16.40
2022-10-05T02:57:15.833Z,14.80
2022-10-05T02:59:48.790Z,16.50
2022-10-05T03:04:56.242Z,15.60
2022-10-05T03:07:30.622Z,13.80
2022-10-05T03:10:04.793Z,13.30
2022-10-05T03:12:45.957Z,16.80
2022-10-05T03:15:46.498Z,15.90
2022-10-05T03:18:26.352Z,16.30
2022-10-05T03:21:10.910Z,15.60
2022-10-05T03:23:52.024Z,14.90
2022-10-05T03:26:30.739Z,14.20
2022-10-05T03:29:08.568Z,15.00
2022-10-05T03:31:43.644Z,19.40
2022-10-05T03:34:18.094Z,15.00
2022-10-05T03:36:52.416Z,16.00
2022-10-05T03:39:28.783Z,17.40
2022-10-05T03:42:05.284Z,16.60
2022-10-05T03:44:40.021Z,19.90
2022-10-05T03:47:16.184Z,20.50
2022-10-05T03:50:02.585Z,18.50
2022-10-05T03:52:37.711Z,16.20
2022-10-05T03:55:14.731Z,18.60
2022-10-05T03:57:46.438Z,18.00
2022-10-05T04:00:20.385Z,20.70
2022-10-05T04:02:59.138Z,17.70
2022-10-05T04:05:33.226Z,17.70
2022-10-05T04:08:06.191Z,18.40
2022-10-05T04:10:42.751Z,19.40
2022-10-05T04:13:18.126Z,21.00
2022-10-05T04:15:54.654Z,20.10
2022-10-05T04:18:30.942Z,22.80
2022-10-05T04:21:05.474Z,22.10
2022-10-05T04:23:46.556Z,21.30
2022-10-05T04:26:20.980Z,15.90
2022-10-05T04:28:56.348Z,23.40
2022-10-05T04:31:38.207Z,25.60
2022-10-05T04:34:19.594Z,25.20
2022-10-05T04:36:54.245Z,24.60
2022-10-05T04:39:32.359Z,25.20
2022-10-05T04:42:10.178Z,27.20
2022-10-05T04:44:59.440Z,25.40
2022-10-05T04:47:56.688Z,25.40
2022-10-05T04:57:53.979Z,25.80
2022-10-05T05:00:29.385Z,26.30
2022-10-05T05:03:34.248Z,26.50
2022-10-05T05:06:17.318Z,23.60
2022-10-05T05:09:06.053Z,22.20
2022-10-05T05:11:42.810Z,21.20
2022-10-05T05:14:26.671Z,17.60
2022-10-05T05:17:12.877Z,26.30
2022-10-05T05:19:52.777Z,25.10
2022-10-05T05:22:30.044Z,23.00
2022-10-05T05:25:17.410Z,20.30
2022-10-05T05:27:52.482Z,25.20
2022-10-05T05:30:26.389Z,23.50
2022-10-05T05:33:09.700Z,22.10
2022-10-05T05:36:23.514Z,16.50
2022-10-05T05:39:05.351Z,18.40
2022-10-05T05:41:40.164Z,20.70
2022-10-05T05:44:18.738Z,20.50
2022-10-05T05:47:10.650Z,18.50
2022-10-05T05:58:20.175Z,21.70
2022-10-05T06:00:53.826Z,17.70
2022-10-05T06:03:27.622Z,18.10
2022-10-05T06:06:00.369Z,15.60
2022-10-05T06:08:36.445Z,15.10
2022-10-05T06:11:17.498Z,18.20
2022-10-05T06:13:49.418Z,15.20
2022-10-05T06:16:24.491Z,16.00
2022-10-05T06:18:58.488Z,15.60
2022-10-05T06:21:35.739Z,15.60
2022-10-05T06:24:10.977Z,13.30
2022-10-05T06:27:11.485Z,13.50
2022-10-05T06:29:52.738Z,13.50
2022-10-05T06:32:28.644Z,9.00
2022-10-05T06:35:10.816Z,9.70
2022-10-05T06:37:59.813Z,10.00
2022-10-05T06:40:40.103Z,11.50
2022-10-05T06:43:21.594Z,11.70
2022-10-05T06:46:17.934Z,9.20
2022-10-05T06:49:19.094Z,8.60
2022-10-05T06:52:19.944Z,8.80
2022-10-05T06:55:00.284Z,8.30
2022-10-05T06:57:43.944Z,9.70
2022-10-05T07:00:20.535Z,9.80
2022-10-05T07:02:57.346Z,9.10
2022-10-05T07:05:47.895Z,10.40
2022-10-05T07:08:24.200Z,10.20
2022-10-05T07:11:05.044Z,12.60
2022-10-05T07:13:49.950Z,12.90
2022-10-05T07:16:27.516Z,13.40
2022-10-05T07:19:11.388Z,10.70
2022-10-05T07:21:46.858Z,12.10
2022-10-05T07:24:29.543Z,9.20
2022-10-05T07:27:07.536Z,8.20
2022-10-05T07:29:44.519Z,8.90
2022-10-05T07:32:23.151Z,10.10
2022-10-05T07:34:59.146Z,9.00
2022-10-05T07:37:53.799Z,10.30
2022-10-05T07:40:30.532Z,9.40
2022-10-05T07:43:18.420Z,9.60
2022-10-05T07:45:52.404Z,8.90
2022-10-05T07:48:24.245Z,10.30
2022-10-05T07:51:01.763Z,12.30
2022-10-05T07:53:36.542Z,13.50
2022-10-05T07:56:13.654Z,12.30
2022-10-05T07:58:47.918Z,11.10
2022-10-05T08:01:22.674Z,11.10
2022-10-05T08:04:00.002Z,11.40
2022-10-05T08:06:47.970Z,10.40
2022-10-05T08:09:29.960Z,10.70
2022-10-05T08:12:11.626Z,10.70
2022-10-05T08:14:47.685Z,10.80
2022-10-05T08:17:26.516Z,10.50
2022-10-05T08:20:04.681Z,11.50
2022-10-05T08:22:41.835Z,11.90
2022-10-05T08:25:19.319Z,12.00
2022-10-05T08:27:53.636Z,12.90
2022-10-05T08:30:24.443Z,12.70
2022-10-05T08:32:58.841Z,12.00
2022-10-05T08:35:34.758Z,13.40
2022-10-05T08:38:09.212Z,10.90
2022-10-05T08:41:01.339Z,12.50
2022-10-05T08:43:45.586Z,11.50
2022-10-05T08:46:37.968Z,12.40
2022-10-05T08:49:36.139Z,13.10
2022-10-05T08:52:23.685Z,15.50
2022-10-05T08:55:27.034Z,13.90
2022-10-05T08:58:25.886Z,13.10
2022-10-05T09:01:06.029Z,13.60
2022-10-05T09:04:19.496Z,14.20
2022-10-05T09:07:12.211Z,11.80
2022-10-05T09:10:18.877Z,11.10
2022-10-05T09:13:10.484Z,11.30
2022-10-05T09:16:07.293Z,19.50
2022-10-05T09:18:57.025Z,20.20
2022-10-05T09:21:39.722Z,22.70
2022-10-05T09:24:21.567Z,19.60
2022-10-05T09:27:01.445Z,23.90
2022-10-05T09:29:51.384Z,20.80
2022-10-05T09:32:40.992Z,19.00
2022-10-05T09:35:25.633Z,21.70
2022-10-05T09:38:17.496Z,19.40
2022-10-05T09:41:20.401Z,18.20
2022-10-05T09:44:27.441Z,15.40
2022-10-05T09:47:07.264Z,13.90
2022-10-05T09:50:03.964Z,16.40
2022-10-05T09:53:05.881Z,11.90
2022-10-05T09:56:06.366Z,14.70
2022-10-05T09:59:14.368Z,15.40
2022-10-05T10:02:05.284Z,14.10
2022-10-05T10:05:01.789Z,12.20
2022-10-05T10:08:10.055Z,13.10
2022-10-05T10:11:11.511Z,12.60
2022-10-05T10:13:55.794Z,13.20
2022-10-05T10:16:35.801Z,11.30
2022-10-05T10:19:24.132Z,12.70
2022-10-05T10:22:42.947Z,13.50
2022-10-05T10:25:27.434Z,12.10
2022-10-05T10:28:14.857Z,11.00
2022-10-05T10:30:55.758Z,13.60
2022-10-05T10:33:47.669Z,13.90
2022-10-05T10:36:21.452Z,10.80
2022-10-05T10:38:58.476Z,10.80
2022-10-05T10:41:43.645Z,11.60
2022-10-05T10:44:48.933Z,10.50
2022-10-05T10:47:41.945Z,14.00
2022-10-05T10:50:45.097Z,17.20
2022-10-05T10:53:32.699Z,10.40
2022-10-05T10:56:24.240Z,12.10
2022-10-05T10:59:17.225Z,16.10
2022-10-05T11:02:02.556Z,13.10
2022-10-05T11:10:41.572Z,15.50
2022-10-05T11:13:47.714Z,14.60
2022-10-05T11:16:31.932Z,15.50
2022-10-05T11:19:40.271Z,10.70
2022-10-05T11:22:42.158Z,13.20
2022-10-05T11:25:23.226Z,12.60
2022-10-05T11:28:06.538Z,11.60
2022-10-05T11:30:57.505Z,11.10
2022-10-05T11:34:06.698Z,9.90
2022-10-05T11:37:07.638Z,9.80
2022-10-05T11:39:46.131Z,9.50
2022-10-05T11:43:01.972Z,12.10
2022-10-05T11:45:40.883Z,12.10
2022-10-05T11:48:33.543Z,10.30
2022-10-05T11:51:30.104Z,8.90
2022-10-05T11:54:07.874Z,10.30
2022-10-05T11:56:41.697Z,8.30
2022-10-05T11:59:18.878Z,8.50
2022-10-05T12:01:53.929Z,9.70
2022-10-05T12:04:30.736Z,11.20
2022-10-05T12:07:10.662Z,7.40
2022-10-05T12:10:17.313Z,6.40
2022-10-05T12:12:59.000Z,7.50
2022-10-05T12:15:32.422Z,7.90
2022-10-05T12:18:08.247Z,7.70
2022-10-05T12:20:45.940Z,11.00
2022-10-05T12:23:21.439Z,7.80
2022-10-05T12:25:56.656Z,7.20
2022-10-05T12:28:33.645Z,6.70
2022-10-05T12:31:13.310Z,7.90
2022-10-05T12:33:50.416Z,4.90
2022-10-05T12:36:28.613Z,5.60
2022-10-05T12:39:13.321Z,6.00
2022-10-05T12:41:48.883Z,7.20
2022-10-05T12:44:42.958Z,4.70
2022-10-05T12:47:20.899Z,5.40
2022-10-05T12:50:00.824Z,5.90
2022-10-05T12:52:43.305Z,4.40
2022-10-05T12:55:21.661Z,5.50
2022-10-05T12:58:05.258Z,3.80
2022-10-05T13:00:37.806Z,5.10
2022-10-05T13:03:16.101Z,6.00
2022-10-05T13:05:50.402Z,6.20
2022-10-05T13:08:24.670Z,4.20
2022-10-05T13:11:01.877Z,4.70
2022-10-05T13:13:47.179Z,4.80
2022-10-05T13:16:27.468Z,4.90
2022-10-05T13:19:07.389Z,4.40
2022-10-05T13:21:49.848Z,5.50
2022-10-05T13:24:26.604Z,5.10
2022-10-05T13:27:02.130Z,7.80
2022-10-05T13:29:36.241Z,4.80
2022-10-05T13:32:12.788Z,6.70
2022-10-05T13:34:47.421Z,6.10
2022-10-05T13:37:24.066Z,5.00
2022-10-05T13:40:04.722Z,7.40
2022-10-05T13:42:38.486Z,6.40
2022-10-05T13:45:15.067Z,5.20
2022-10-05T13:47:53.485Z,5.20
2022-10-05T13:50:29.721Z,7.80
2022-10-05T13:53:10.412Z,6.30
2022-10-05T13:55:44.541Z,6.80
2022-10-05T13:58:20.411Z,6.00
2022-10-05T14:00:53.912Z,5.20
2022-10-05T14:03:29.278Z,4.90
2022-10-05T14:06:01.457Z,6.30
2022-10-05T14:08:35.154Z,5.50
2022-10-05T14:14:14.340Z,5.20
2022-10-05T14:16:52.940Z,5.80
2022-10-05T14:19:28.063Z,5.40
2022-10-05T14:22:04.104Z,6.30
2022-10-05T14:24:45.036Z,5.60
2022-10-05T14:27:23.572Z,4.70
2022-10-05T14:30:02.960Z,4.60
2022-10-05T14:32:44.121Z,5.20
2022-10-05T14:35:20.664Z,6.40
2022-10-05T14:37:57.232Z,5.20
2022-10-05T14:40:30.922Z,4.80
2022-10-05T14:43:16.455Z,7.00
2022-10-05T14:45:56.545Z,5.10
2022-10-05T14:48:28.327Z,4.10
2022-10-05T14:51:03.206Z,4.10
2022-10-05T14:53:43.229Z,4.80
2022-10-05T14:56:28.510Z,6.40
2022-10-05T14:59:10.363Z,5.10
2022-10-05T15:01:46.176Z,5.10
2022-10-05T15:04:33.805Z,5.20
2022-10-05T15:07:19.404Z,6.90
2022-10-05T15:10:07.413Z,4.80
2022-10-05T15:12:41.431Z,5.10
2022-10-05T15:15:28.761Z,5.40
2022-10-05T15:18:02.577Z,4.30
2022-10-05T15:20:39.182Z,4.70
2022-10-05T15:23:24.741Z,5.70
2022-10-05T15:26:08.803Z,6.10
2022-10-05T15:28:48.272Z,10.50
2022-10-05T15:31:26.883Z,4.20
2022-10-05T15:34:01.983Z,9.60
2022-10-05T15:36:39.228Z,7.90
2022-10-05T15:39:16.676Z,6.20
2022-10-05T15:41:55.260Z,6.00
2022-10-05T15:44:34.226Z,5.50
2022-10-05T15:47:07.058Z,5.60
2022-10-05T15:52:17.738Z,5.90
2022-10-05T15:55:23.775Z,5.50
2022-10-05T15:58:01.358Z,7.00
2022-10-05T16:00:36.453Z,9.30
2022-10-05T16:03:16.166Z,4.60
2022-10-05T16:06:08.050Z,6.30
2022-10-05T16:08:54.173Z,7.70
2022-10-05T16:11:40.455Z,8.10
2022-10-05T16:14:27.994Z,7.20
2022-10-05T16:17:09.634Z,8.50
2022-10-05T16:19:46.196Z,7.60
2022-10-05T16:22:22.165Z,6.80
2022-10-05T16:25:09.761Z,7.60
2022-10-05T16:27:49.463Z,7.20
2022-10-05T16:30:22.506Z,8.30
2022-10-05T16:32:57.601Z,5.40
2022-10-05T16:35:37.377Z,5.60
2022-10-05T16:38:19.344Z,7.30
2022-10-05T16:41:01.048Z,7.70
2022-10-05T16:43:39.088Z,8.20
2022-10-05T16:46:16.500Z,8.10
2022-10-05T16:48:54.885Z,10.20
2022-10-05T16:51:32.828Z,7.80
2022-10-05T16:54:18.312Z,6.40
2022-10-05T16:56:52.199Z,8.40
2022-10-05T16:59:55.526Z,7.80
2022-10-05T17:02:39.381Z,6.20
2022-10-05T17:05:24.029Z,5.00
2022-10-05T17:08:18.470Z,9.00
2022-10-05T17:10:59.666Z,5.00
2022-10-05T17:13:44.423Z,5.60
2022-10-05T17:16:23.173Z,5.90
2022-10-05T17:19:24.698Z,7.00
2022-10-05T17:22:00.368Z,5.00
2022-10-05T17:24:53.348Z,5.70
2022-10-05T17:27:52.430Z,4.40
2022-10-05T17:30:38.998Z,6.30
2022-10-05T17:33:25.528Z,5.20
2022-10-05T17:36:17.154Z,5.30
2022-10-05T17:38:53.373Z,3.70
2022-10-05T17:41:29.527Z,5.20
2022-10-05T17:44:20.871Z,5.80
2022-10-05T17:46:52.577Z,5.80
2022-10-05T17:50:15.630Z,3.60
2022-10-05T17:53:03.873Z,6.60
2022-10-05T17:55:46.010Z,4.30
2022-10-05T17:59:04.774Z,6.30
2022-10-05T18:01:39.726Z,4.90
2022-10-05T18:04:42.048Z,3.30
2022-10-05T18:07:23.121Z,6.80
2022-10-05T18:10:22.359Z,4.50
2022-10-05T18:13:12.795Z,6.30
2022-10-05T18:15:51.558Z,4.00
2022-10-05T18:18:52.838Z,4.50
2022-10-05T18:21:29.829Z,4.50
2022-10-05T18:24:21.787Z,4.80
2022-10-05T18:27:00.065Z,4.10
2022-10-05T18:30:09.101Z,3.20
2022-10-05T18:32:50.004Z,5.60
2022-10-05T18:35:23.108Z,3.30
2022-10-05T18:38:03.021Z,5.10
2022-10-05T18:40:41.127Z,3.70
2022-10-05T18:43:24.687Z,5.50
2022-10-05T18:46:05.518Z,5.10
2022-10-05T18:48:40.510Z,4.20
2022-10-05T18:51:19.179Z,4.40
2022-10-05T18:54:00.968Z,4.70
2022-10-05T18:56:37.424Z,3.30
2022-10-05T18:59:19.898Z,6.80
2022-10-05T19:01:58.252Z,4.20
2022-10-05T19:04:36.035Z,4.50
2022-10-05T19:07:18.015Z,4.50
2022-10-05T19:09:59.683Z,4.70
2022-10-05T19:12:41.669Z,5.30
2022-10-05T19:15:19.690Z,5.00
2022-10-05T19:18:08.613Z,4.20
2022-10-05T19:20:43.116Z,5.80
2022-10-05T19:23:27.043Z,4.90
2022-10-05T19:26:03.245Z,3.30
2022-10-05T19:28:38.292Z,5.30
2022-10-05T19:31:23.912Z,5.60
2022-10-05T19:34:11.179Z,5.40
2022-10-05T19:36:50.089Z,3.40
2022-10-05T19:39:28.426Z,9.50
2022-10-05T19:42:13.627Z,4.90
2022-10-05T19:44:54.054Z,4.70
2022-10-05T19:47:31.842Z,5.40
2022-10-05T19:50:19.869Z,5.30
2022-10-05T19:52:53.180Z,5.60
2022-10-05T19:55:35.276Z,6.20
2022-10-05T19:58:19.499Z,4.30
2022-10-05T20:00:59.445Z,7.30
2022-10-05T20:03:31.830Z,6.30
2022-10-05T20:06:03.950Z,5.00
2022-10-05T20:08:43.651Z,6.40
2022-10-05T20:11:16.312Z,5.30
2022-10-05T20:14:12.857Z,6.70
2022-10-05T20:17:00.688Z,6.60
2022-10-05T20:19:55.635Z,6.90
2022-10-05T20:22:32.711Z,6.30
2022-10-05T20:25:06.366Z,5.50
2022-10-05T20:27:46.813Z,4.30
2022-10-05T20:30:19.421Z,4.80
2022-10-05T20:32:52.963Z,5.10
2022-10-05T20:35:23.584Z,6.40
2022-10-05T20:37:54.022Z,5.70
2022-10-05T20:40:24.342Z,4.90
2022-10-05T20:42:54.927Z,4.50
2022-10-05T20:45:25.295Z,5.50
2022-10-05T20:47:55.615Z,6.60
2022-10-05T20:50:27.516Z,6.10
2022-10-05T20:52:57.881Z,4.60
2022-10-05T20:55:31.421Z,4.70
2022-10-05T20:58:02.003Z,5.50
2022-10-05T21:00:52.863Z,4.60
2022-10-05T21:03:23.327Z,7.10
2022-10-05T21:05:53.941Z,5.50
2022-10-05T21:08:25.136Z,4.90
2022-10-05T21:10:55.870Z,8.10
2022-10-05T21:13:27.063Z,7.40
2022-10-05T21:15:57.477Z,7.20
2022-10-05T21:18:28.208Z,9.70
2022-10-05T21:21:02.042Z,7.00
2022-10-05T21:23:33.519Z,5.30
2022-10-05T21:26:04.379Z,9.20
2022-10-05T21:28:35.047Z,7.30
2022-10-05T21:31:05.843Z,4.90
2022-10-05T21:33:37.058Z,6.30
2022-10-05T21:36:07.653Z,13.00
2022-10-05T21:38:38.087Z,6.80
2022-10-05T21:41:08.775Z,7.60
2022-10-05T21:43:39.397Z,6.70
2022-10-05T21:46:10.467Z,6.40
2022-10-05T21:48:42.152Z,6.20
2022-10-05T21:51:16.464Z,6.40
2022-10-05T21:53:51.091Z,9.80
2022-10-05T21:56:23.466Z,6.10
2022-10-05T21:58:54.395Z,5.80
2022-10-05T22:01:25.024Z,9.00
2022-10-05T22:03:56.920Z,6.10
2022-10-05T22:06:27.412Z,9.10
2022-10-05T22:08:57.793Z,5.80
2022-10-05T22:11:29.014Z,5.80
2022-10-05T22:14:02.573Z,5.70
2022-10-05T22:16:35.481Z,6.40
2022-10-05T22:21:38.146Z,7.50
2022-10-05T22:24:09.119Z,7.40
2022-10-05T22:26:39.815Z,7.80
2022-10-05T22:29:10.527Z,5.80
2022-10-05T22:31:41.189Z,5.40
2022-10-05T22:34:11.656Z,6.60
2022-10-05T22:36:42.730Z,6.30
2022-10-05T22:39:13.128Z,7.80
2022-10-05T22:41:43.998Z,6.50
2022-10-05T22:44:14.386Z,9.40
2022-10-05T22:46:44.818Z,4.80
2022-10-05T22:49:15.260Z,5.50
2022-10-05T22:51:45.747Z,6.40
2022-10-05T22:54:16.180Z,6.00
2022-10-05T22:56:46.660Z,5.90
2022-10-05T22:59:17.771Z,7.20
2022-10-05T23:01:48.491Z,5.80
2022-10-05T23:04:19.114Z,7.30
2022-10-05T23:06:49.676Z,6.00
2022-10-05T23:09:20.281Z,9.30
2022-10-05T23:11:53.936Z,6.40
2022-10-05T23:14:24.570Z,6.30
2022-10-05T23:16:54.985Z,7.50
2022-10-05T23:19:25.918Z,5.90
2022-10-05T23:21:56.914Z,8.10
2022-10-05T23:24:27.354Z,9.00
2022-10-05T23:26:57.785Z,5.90
2022-10-05T23:29:28.652Z,6.70
2022-10-05T23:31:59.930Z,6.50
2022-10-05T23:34:30.337Z,7.60
2022-10-05T23:37:00.770Z,6.30
2022-10-05T23:39:31.208Z,8.50
2022-10-05T23:42:01.651Z,6.80
2022-10-05T23:44:32.048Z,8.10
2022-10-05T23:47:02.512Z,8.50
2022-10-05T23:49:33.433Z,7.40
2022-10-05T23:52:04.087Z,5.20
2022-10-05T23:54:34.422Z,9.00
2022-10-05T23:57:04.982Z,7.80
2022-10-05T23:59:35.349Z,12.40
